This demonstration page uses our WeatherBlox Daily Observations layout. Learn more.

39.29038, -76.61219

Hourly Observations for July 28, 2017

Temp ( °F °C ) Dew Point ( °F °C ) Humidity (%) Winds ( mph kmh ) Pressure ( in mb ) Visibility ( mi km ) Precip ( " mm )
12:54 am 00:54 undefined 81 27.2 74 23.3 79 79 undefined N/A 29.83 1010 N/A 0 0
1:54 am 01:54 undefined 80 26.7 74 23.3 82 82 undefined N/A 29.83 1010 N/A 0 0
2:54 am 02:54 undefined 80 26.7 75 23.9 85 85 undefined N/A 29.8 1009 N/A 0 0
3:54 am 03:54 undefined 77 25 72 22.2 85 85 undefined N/A 29.8 1009 N/A 0.02 0.508
4:54 am 04:54 undefined 77 25 72 22.2 85 85 undefined N/A 29.8 1009 N/A 0.06 1.524
5:54 am 05:54 undefined 76 24.4 74 23.3 94 94 undefined N/A 29.83 1010 N/A 0 0
6:54 am 06:54 undefined 76 24.4 75 23.9 97 97 undefined N/A 29.83 1010 N/A 0 0
7:54 am 07:54 undefined 77 25 75 23.9 94 94 undefined N/A 29.83 1010 N/A 0 0
8:54 am 08:54 undefined 77 25 74 23.3 90 90 undefined N/A 29.83 1010 N/A 0 0
9:54 am 09:54 undefined 78 25.6 75 23.9 90 90 undefined N/A 29.83 1010 N/A 0 0
10:54 am 10:54 undefined 80 26.7 75 23.9 85 85 undefined N/A 29.83 1010 N/A 0 0
11:54 am 11:54 undefined 81 27.2 73 22.8 77 77 undefined N/A 29.8 1009 N/A 0 0
12:54 pm 12:54 undefined 80 26.7 73 22.8 79 79 undefined N/A 29.8 1009 N/A 0 0
1:54 pm 13:54 undefined 78 25.6 76 24.4 93 93 undefined N/A 29.8 1009 N/A 0.02 0.508
2:54 pm 14:54 undefined 75 23.9 73 22.8 94 94 undefined N/A 29.77 1008 N/A 0.07 1.778
3:54 pm 15:54 undefined 77 25 73 22.8 88 88 undefined N/A 29.77 1008 N/A 0 0
4:54 pm 16:54 undefined 78 25.6 75 23.9 90 90 undefined N/A 29.74 1007 N/A 0 0
5:54 pm 17:54 undefined 77 25 75 23.9 94 94 undefined N/A 29.74 1007 N/A 0.07 1.778
6:54 pm 18:54 undefined 73 22.8 73 22.8 100 100 undefined N/A 29.74 1007 N/A 1.14 28.956
7:54 pm 19:54 undefined 73 22.8 71 21.7 94 94 undefined N/A 29.74 1007 N/A 0.21 5.334
8:54 pm 20:54 undefined 73 22.8 71 21.7 94 94 undefined N/A 29.71 1006 N/A 0.03 0.762
9:54 pm 21:54 undefined 75 23.9 74 23.3 96 96 undefined N/A 29.71 1006 N/A 0 0
10:54 pm 22:54 undefined 76 24.4 74 23.3 94 94 undefined N/A 29.71 1006 N/A 0.01 0.254
11:54 pm 23:54 undefined 74 23.3 73 22.8 97 97 undefined N/A 29.68 1005 N/A 0.66 16.764

Powered by AerisWeather